地図

経路データ

SID SEASON NUMBER BASIN SUBBASIN NAME ISO_TIME NATURE LAT LON WMO_WIND WMO_PRES WMO_AGENCY TRACK_TYPE DIST2LAND LANDFALL IFLAG USA_AGENCY USA_ATCF_ID USA_LAT USA_LON USA_RECORD USA_STATUS USA_WIND USA_PRES USA_SSHS USA_R34_NE USA_R34_SE USA_R34_SW USA_R34_NW USA_R50_NE USA_R50_SE USA_R50_SW USA_R50_NW USA_R64_NE USA_R64_SE USA_R64_SW USA_R64_NW USA_POCI USA_ROCI USA_RMW USA_EYE TOKYO_LAT TOKYO_LON TOKYO_GRADE TOKYO_WIND TOKYO_PRES TOKYO_R50_DIR TOKYO_R50_LONG TOKYO_R50_SHORT TOKYO_R30_DIR TOKYO_R30_LONG TOKYO_R30_SHORT TOKYO_LAND CMA_LAT CMA_LON CMA_CAT CMA_WIND CMA_PRES HKO_LAT HKO_LON HKO_CAT HKO_WIND HKO_PRES NEWDELHI_LAT NEWDELHI_LON NEWDELHI_GRADE NEWDELHI_WIND NEWDELHI_PRES NEWDELHI_CI NEWDELHI_DP NEWDELHI_POCI REUNION_LAT REUNION_LON REUNION_TYPE REUNION_WIND REUNION_PRES REUNION_TNUM REUNION_CI REUNION_RMW REUNION_R34_NE REUNION_R34_SE REUNION_R34_SW REUNION_R34_NW REUNION_R50_NE REUNION_R50_SE REUNION_R50_SW REUNION_R50_NW REUNION_R64_NE REUNION_R64_SE REUNION_R64_SW REUNION_R64_NW BOM_LAT BOM_LON BOM_TYPE BOM_WIND BOM_PRES BOM_TNUM BOM_CI BOM_RMW BOM_R34_NE BOM_R34_SE BOM_R34_SW BOM_R34_NW BOM_R50_NE BOM_R50_SE BOM_R50_SW BOM_R50_NW BOM_R64_NE BOM_R64_SE BOM_R64_SW BOM_R64_NW BOM_ROCI BOM_POCI BOM_EYE BOM_POS_METHOD BOM_PRES_METHOD NADI_LAT NADI_LON NADI_CAT NADI_WIND NADI_PRES WELLINGTON_LAT WELLINGTON_LON WELLINGTON_WIND WELLINGTON_PRES DS824_LAT DS824_LON DS824_STAGE DS824_WIND DS824_PRES TD9636_LAT TD9636_LON TD9636_STAGE TD9636_WIND TD9636_PRES TD9635_LAT TD9635_LON TD9635_WIND TD9635_PRES TD9635_ROCI NEUMANN_LAT NEUMANN_LON NEUMANN_CLASS NEUMANN_WIND NEUMANN_PRES MLC_LAT MLC_LON MLC_CLASS MLC_WIND MLC_PRES USA_GUST BOM_GUST BOM_GUST_PER REUNION_GUST REUNION_GUST_PER USA_SEAHGT USA_SEARAD_NE USA_SEARAD_SE USA_SEARAD_SW USA_SEARAD_NW STORM_SPEED STORM_DIR
1968203N11257 1968 45 EP MM DIANA 1968-07-21 00:00:00 TS 11.4000 -103.100 25 hurdat_epa main 694 660 O________OO___ hurdat_epa EP041968 11.4000 -103.100 TD 25 -1 11.4000 -103.100 TC 25 11.4000 -103.100 1 18 312
1968203N11257 1968 45 EP MM DIANA 1968-07-21 03:00:00 TS 12.0087 -103.797 main 660 637 P________PP___ EP041968 11.9926 -103.765 TD 25 -1 11.9926 -103.765 TC 25 12.0730 -103.925 1 19 311
1968203N11257 1968 45 EP MM DIANA 1968-07-21 06:00:00 TS 12.6212 -104.544 25 hurdat_epa main 637 602 O________OP___ hurdat_epa EP041968 12.6000 -104.500 TD 25 -1 12.6000 -104.500 TC 25 12.7059 -104.722 1 20 309
1968203N11257 1968 45 EP MM DIANA 1968-07-21 09:00:00 TS 13.2203 -105.355 main 605 580 P________PP___ EP041968 13.2102 -105.330 TD 25 -1 13.2102 -105.330 TC 25 13.2607 -105.459 1 19 305
1968203N11257 1968 45 EP MM DIANA 1968-07-21 12:00:00 TS 13.7000 -106.100 25 hurdat_epa main 585 580 O________OO___ hurdat_epa EP041968 13.7000 -106.100 TD 25 -1 13.7000 -106.100 TC 25 13.7000 -106.100 2 15 301
1968203N11257 1968 45 EP MM DIANA 1968-07-21 15:00:00 TS 13.9677 -106.642 main 584 584 P________PP___ EP041968 13.9595 -106.646 TD 35 0 13.9595 -106.646 TC 35 14.0002 -106.629 2 11 293
1968203N11257 1968 45 EP MM DIANA 1968-07-21 18:00:00 TS 14.1179 -107.099 45 hurdat_epa main 607 605 O________OP___ hurdat_epa EP041968 14.1000 -107.100 TS 45 0 14.1000 -107.100 TC 45 14.1897 -107.095 2 9 289
1968203N11257 1968 45 EP MM DIANA 1968-07-21 21:00:00 TS 14.2736 -107.563 main 624 624 P________PP___ EP041968 14.2646 -107.563 TS 45 0 14.2646 -107.563 TC 45 14.3095 -107.563 2 10 286
1968203N11257 1968 45 EP MM DIANA 1968-07-22 00:00:00 TS 14.4000 -108.100 45 hurdat_epa main 641 641 O________OO___ hurdat_epa EP041968 14.4000 -108.100 TS 45 0 14.4000 -108.100 TC 45 14.4000 -108.100 2 12 281
1968203N11257 1968 45 EP MM DIANA 1968-07-22 03:00:00 TS 14.5121 -108.809 main 676 676 P________PP___ EP041968 14.5075 -108.805 TS 45 0 14.5075 -108.805 TC 45 14.5306 -108.824 2 15 278
1968203N11257 1968 45 EP MM DIANA 1968-07-22 06:00:00 TS 14.6078 -109.604 45 hurdat_epa main 725 725 O________OP___ hurdat_epa EP041968 14.6000 -109.600 TS 45 0 14.6000 -109.600 TC 45 14.6389 -109.620 2 16 277
1968203N11257 1968 45 EP MM DIANA 1968-07-22 09:00:00 TS 14.7116 -110.424 main 778 778 P________PP___ EP041968 14.7076 -110.422 TS 45 0 14.7076 -110.422 TC 45 14.7275 -110.431 2 16 277
1968203N11257 1968 45 EP MM DIANA 1968-07-22 12:00:00 TS 14.8000 -111.200 45 hurdat_epa main 832 832 O________OO___ hurdat_epa EP041968 14.8000 -111.200 TS 45 0 14.8000 -111.200 TC 45 14.8000 -111.200 2 14 276
1968203N11257 1968 45 EP MM DIANA 1968-07-22 15:00:00 TS 14.8583 -111.837 main 874 874 P________PP___ EP041968 14.8571 -111.830 TS 45 0 14.8571 -111.830 TC 45 14.8634 -111.863 2 12 275
1968203N11257 1968 45 EP MM DIANA 1968-07-22 18:00:00 TS 14.9028 -112.415 45 hurdat_epa main 925 925 O________OP___ hurdat_epa EP041968 14.9000 -112.400 TS 45 0 14.9000 -112.400 TC 45 14.9138 -112.475 2 11 275
1968203N11257 1968 45 EP MM DIANA 1968-07-22 21:00:00 TS 14.9514 -113.016 main 938 938 P________PP___ EP041968 14.9499 -113.008 TS 45 0 14.9499 -113.008 TC 45 14.9574 -113.050 2 12 275
1968203N11257 1968 45 EP MM DIANA 1968-07-23 00:00:00 TS 15.0000 -113.600 45 hurdat_epa main 961 961 O________OO___ hurdat_epa EP041968 15.0000 -113.600 TS 45 0 15.0000 -113.600 TC 45 15.0000 -113.600 2 11 275
1968203N11257 1968 45 EP MM DIANA 1968-07-23 03:00:00 TS 15.0473 -114.159 main 987 977 P________PP___ EP041968 15.0499 -114.165 TS 45 0 15.0499 -114.165 TC 45 15.0370 -114.135 2 11 275
1968203N11257 1968 45 EP MM DIANA 1968-07-23 06:00:00 TS 15.0953 -114.690 45 hurdat_epa main 1002 1002 O________OP___ hurdat_epa EP041968 15.1000 -114.700 TS 45 0 15.1000 -114.700 TC 45 15.0764 -114.651 2 10 275
1968203N11257 1968 45 EP MM DIANA 1968-07-23 09:00:00 TS 15.1393 -115.187 main 1029 1025 P________PP___ EP041968 15.1422 -115.193 TS 45 0 15.1422 -115.193 TC 45 15.1276 -115.166 2 10 276
1968203N11257 1968 45 EP MM DIANA 1968-07-23 12:00:00 TS 15.2000 -115.700 45 hurdat_epa main 1048 1048 O________OO___ hurdat_epa EP041968 15.2000 -115.700 TS 45 0 15.2000 -115.700 TC 45 15.2000 -115.700 2 11 278
1968203N11257 1968 45 EP MM DIANA 1968-07-23 15:00:00 TS 15.2871 -116.288 main 1077 1077 P________PP___ EP041968 15.2850 -116.285 TS 45 0 15.2850 -116.285 TC 45 15.2955 -116.299 2 12 280
1968203N11257 1968 45 EP MM DIANA 1968-07-23 18:00:00 TS 15.4026 -116.903 45 hurdat_epa main 1108 1108 O________OP___ hurdat_epa EP041968 15.4000 -116.900 TS 45 0 15.4000 -116.900 TC 45 15.4128 -116.915 2 12 282
1968203N11257 1968 45 EP MM DIANA 1968-07-23 21:00:00 TS 15.5437 -117.517 main 1142 1141 P________PP___ EP041968 15.5425 -117.515 TS 45 0 15.5425 -117.515 TC 45 15.5486 -117.524 2 12 284
1968203N11257 1968 45 EP MM DIANA 1968-07-24 00:00:00 TS 15.7000 -118.100 45 hurdat_epa main 1170 1170 O________OO___ hurdat_epa EP041968 15.7000 -118.100 TS 45 0 15.7000 -118.100 TC 45 15.7000 -118.100 6 11 286
1968203N11257 1968 45 EP MM DIANA 1968-07-24 03:00:00 TS 15.8465 -118.613 main 1201 1193 P________PP___ EP041968 15.8423 -118.623 TS 35 0 15.8423 -118.623 TC 35 15.8633 -118.575 6 10 288
1968203N11257 1968 45 EP MM DIANA 1968-07-24 06:00:00 TS 16.0081 -119.084 25 hurdat_epa main 1215 1212 O________OP___ hurdat_epa EP041968 16.0000 -119.100 TD 25 -1 16.0000 -119.100 TC 25 16.0405 -119.021 6 9 292
1968203N11257 1968 45 EP MM DIANA 1968-07-24 09:00:00 TS 16.1982 -119.512 main 1223 1221 P________PP___ EP041968 16.1921 -119.520 TD 25 -1 16.1921 -119.520 TC 25 16.2226 -119.481 6 10 294
1968203N11257 1968 45 EP MM DIANA 1968-07-24 12:00:00 TS 16.4000 -120.000 25 hurdat_epa main 1239 1239 O________OO___ hurdat_epa EP041968 16.4000 -120.000 TD 25 -1 16.4000 -120.000 TC 25 16.4000 -120.000 6 12 291
1968203N11257 1968 45 EP MM DIANA 1968-07-24 15:00:00 TS 16.6101 -120.658 main 1272 1271 P________PP___ EP041968 16.6151 -120.662 TD 25 -1 16.6151 -120.662 TC 25 16.5901 -120.643 6 14 286
1968203N11257 1968 45 EP MM DIANA 1968-07-24 18:00:00 TS 16.7936 -121.389 25 hurdat_epa main 1308 1308 O________OP___ hurdat_epa EP041968 16.8000 -121.400 TD 25 -1 16.8000 -121.400 TC 25 16.7681 -121.346 6 14 283
1968203N11257 1968 45 EP MM DIANA 1968-07-24 21:00:00 TS 16.9322 -122.101 main 1354 1354 P________PP___ EP041968 16.9373 -122.107 TD 25 -1 16.9373 -122.107 TC 25 16.9119 -122.077 6 14 279
1968203N11257 1968 45 EP MM DIANA 1968-07-25 00:00:00 TS 17.0000 -122.800 25 hurdat_epa main 1403 1403 O________OO___ hurdat_epa EP041968 17.0000 -122.800 TD 25 -1 17.0000 -122.800 TC 25 17.0000 -122.800 6 13 272
1968203N11257 1968 45 EP MM DIANA 1968-07-25 03:00:00 TS 16.9758 -123.458 main 1461 1461 P________PP___ EP041968 16.9722 -123.458 TD 25 -1 16.9722 -123.458 TC 25 16.9902 -123.458 6 12 266
1968203N11257 1968 45 EP MM DIANA 1968-07-25 06:00:00 TS 16.9057 -124.100 25 hurdat_epa main 1518 1518 O________OP___ hurdat_epa EP041968 16.9000 -124.100 TD 25 -1 16.9000 -124.100 TC 25 16.9286 -124.102 6 12 264
1968203N11257 1968 45 EP MM DIANA 1968-07-25 09:00:00 TS 16.8383 -124.743 main 1572 1572 P________PP___ EP041968 16.8347 -124.743 TD 25 -1 16.8347 -124.743 TC 25 16.8527 -124.745 6 12 265
1968203N11257 1968 45 EP MM DIANA 1968-07-25 12:00:00 TS 16.8000 -125.400 25 hurdat_epa main 1619 1619 O________OO___ hurdat_epa EP041968 16.8000 -125.400 TD 25 -1 16.8000 -125.400 TC 25 16.8000 -125.400 6 13 270
1968203N11257 1968 45 EP MM DIANA 1968-07-25 15:00:00 TS 16.8337 -126.093 main 1668 1668 P________PP___ EP041968 16.8348 -126.092 TD 25 -1 16.8348 -126.092 TC 25 16.8291 -126.093 6 13 274
1968203N11257 1968 45 EP MM DIANA 1968-07-25 18:00:00 TS 16.8969 -126.800 25 hurdat_epa main 1709 1709 O________OP___ hurdat_epa EP041968 16.9000 -126.800 TD 25 -1 16.9000 -126.800 TC 25 16.8847 -126.799 6 14 275
1968203N11257 1968 45 EP MM DIANA 1968-07-25 21:00:00 TS 16.9554 -127.507 main 1753 1753 P________PP___ EP041968 16.9573 -127.507 TD 25 -1 16.9573 -127.507 TC 25 16.9478 -127.506 6 13 274
1968203N11257 1968 45 EP MM DIANA 1968-07-26 00:00:00 TS 17.0000 -128.200 25 hurdat_epa main 1806 1806 O________OO___ hurdat_epa EP041968 17.0000 -128.200 TD 25 -1 17.0000 -128.200 TC 25 17.0000 -128.200 6 13 272
1968203N11257 1968 45 EP MM DIANA 1968-07-26 03:00:00 TS 17.0112 -128.861 main 1860 1860 P________PP___ EP041968 17.0072 -128.858 TD 25 -1 17.0072 -128.858 TC 25 17.0269 -128.872 6 12 270
1968203N11257 1968 45 EP MM DIANA 1968-07-26 06:00:00 TS 17.0062 -129.505 25 hurdat_epa main 1908 1908 O________OP___ hurdat_epa EP041968 17.0000 -129.500 TD 25 -1 17.0000 -129.500 TC 25 17.0312 -129.526 6 12 270
1968203N11257 1968 45 EP MM DIANA 1968-07-26 09:00:00 TS 17.0024 -130.151 main 1964 1964 P________PP___ EP041968 16.9980 -130.147 TD 25 -1 16.9980 -130.147 TC 25 17.0200 -130.166 6 12 270
1968203N11257 1968 45 EP MM DIANA 1968-07-26 12:00:00 TS 17.0000 -130.800 25 hurdat_epa main 2013 O________OO___ hurdat_epa EP041968 17.0000 -130.800 TD 25 -1 17.0000 -130.800 TC 25 17.0000 -130.800 6 12 270

IBTrACS Databaseについて

本データベースは、米国NOAAが公開する1842年以降の世界の熱帯低気圧のベストトラックデータアーカイブInternational Best Track Archive for Climate Stewardship (IBTrACS)を、ウェブで閲覧しやすい形式に変換したものです。

最終更新日:2021-10-25